sensor_id;sensor_type;location;lat;lon;timestamp;pressure;altitude;pressure_sealevel;temperature;humidity
47240;BME280;32978;53.586;10.052;2023-03-18T00:03:03;100656.38;;;10.04;100.00
47240;BME280;32978;53.586;10.052;2023-03-18T00:08:00;100649.47;;;10.06;100.00
47240;BME280;32978;53.586;10.052;2023-03-18T00:12:58;100651.72;;;10.04;100.00
47240;BME280;32978;53.586;10.052;2023-03-18T00:17:54;100645.59;;;9.99;100.00
47240;BME280;32978;53.586;10.052;2023-03-18T00:22:54;100651.22;;;9.94;100.00
47240;BME280;32978;53.586;10.052;2023-03-18T00:27:52;100650.38;;;9.93;100.00
47240;BME280;32978;53.586;10.052;2023-03-18T00:32:49;100644.78;;;9.89;100.00
47240;BME280;32978;53.586;10.052;2023-03-18T00:37:45;100641.91;;;9.95;100.00
47240;BME280;32978;53.586;10.052;2023-03-18T00:42:43;100643.13;;;9.88;100.00
47240;BME280;32978;53.586;10.052;2023-03-18T00:47:45;100644.47;;;9.91;100.00
47240;BME280;32978;53.586;10.052;2023-03-18T00:52:43;100642.53;;;9.92;100.00
47240;BME280;32978;53.586;10.052;2023-03-18T00:57:40;100644.78;;;9.89;100.00
47240;BME280;32978;53.586;10.052;2023-03-18T01:02:37;100657.94;;;9.87;100.00
47240;BME280;32978;53.586;10.052;2023-03-18T01:07:33;100665.47;;;9.82;100.00
47240;BME280;32978;53.586;10.052;2023-03-18T01:12:31;100667.50;;;9.76;100.00
47240;BME280;32978;53.586;10.052;2023-03-18T01:17:28;100669.13;;;9.77;100.00
47240;BME280;32978;53.586;10.052;2023-03-18T01:22:26;100665.28;;;9.78;100.00
47240;BME280;32978;53.586;10.052;2023-03-18T01:27:23;100662.69;;;9.73;100.00
47240;BME280;32978;53.586;10.052;2023-03-18T01:32:20;100661.06;;;9.72;100.00
47240;BME280;32978;53.586;10.052;2023-03-18T01:37:17;100669.75;;;9.74;100.00
47240;BME280;32978;53.586;10.052;2023-03-18T01:42:14;100668.16;;;9.73;100.00
47240;BME280;32978;53.586;10.052;2023-03-18T01:47:13;100664.63;;;9.81;100.00
47240;BME280;32978;53.586;10.052;2023-03-18T01:52:16;100659.19;;;9.81;100.00
47240;BME280;32978;53.586;10.052;2023-03-18T01:57:14;100667.06;;;9.83;100.00
47240;BME280;32978;53.586;10.052;2023-03-18T02:02:14;100669.13;;;9.77;100.00
47240;BME280;32978;53.586;10.052;2023-03-18T02:07:26;100672.97;;;9.76;100.00
47240;BME280;32978;53.586;10.052;2023-03-18T02:12:30;100681.94;;;9.68;100.00
47240;BME280;32978;53.586;10.052;2023-03-18T02:17:30;100682.53;;;9.65;100.00
47240;BME280;32978;53.586;10.052;2023-03-18T02:22:34;100684.53;;;9.73;100.00
47240;BME280;32978;53.586;10.052;2023-03-18T02:27:36;100690.72;;;9.65;100.00
47240;BME280;32978;53.586;10.052;2023-03-18T02:32:36;100698.97;;;9.74;100.00
47240;BME280;32978;53.586;10.052;2023-03-18T02:37:33;100694.81;;;9.76;100.00
47240;BME280;32978;53.586;10.052;2023-03-18T02:42:30;100701.91;;;9.77;100.00
47240;BME280;32978;53.586;10.052;2023-03-18T02:47:27;100703.50;;;9.78;100.00
47240;BME280;32978;53.586;10.052;2023-03-18T02:52:26;100696.09;;;9.79;100.00
47240;BME280;32978;53.586;10.052;2023-03-18T02:57:32;100699.47;;;9.76;100.00
47240;BME280;32978;53.586;10.052;2023-03-18T03:02:29;100702.69;;;9.78;100.00
47240;BME280;32978;53.586;10.052;2023-03-18T03:07:26;100700.28;;;9.76;100.00
47240;BME280;32978;53.586;10.052;2023-03-18T03:12:23;100707.97;;;9.74;100.00
47240;BME280;32978;53.586;10.052;2023-03-18T03:17:20;100710.19;;;9.72;100.00
47240;BME280;32978;53.586;10.052;2023-03-18T03:22:17;100714.34;;;9.61;100.00
47240;BME280;32978;53.586;10.052;2023-03-18T03:27:14;100718.53;;;9.67;100.00
47240;BME280;32978;53.586;10.052;2023-03-18T03:32:10;100728.41;;;9.54;100.00
47240;BME280;32978;53.586;10.052;2023-03-18T03:37:07;100731.06;;;9.45;100.00
47240;BME280;32978;53.586;10.052;2023-03-18T03:42:04;100732.63;;;9.38;100.00
47240;BME280;32978;53.586;10.052;2023-03-18T03:47:01;100735.66;;;9.36;100.00
47240;BME280;32978;53.586;10.052;2023-03-18T03:51:57;100730.19;;;9.36;100.00
47240;BME280;32978;53.586;10.052;2023-03-18T03:56:54;100715.44;;;9.37;100.00
47240;BME280;32978;53.586;10.052;2023-03-18T04:01:51;100720.78;;;9.42;100.00
47240;BME280;32978;53.586;10.052;2023-03-18T04:06:48;100722.00;;;9.36;100.00
47240;BME280;32978;53.586;10.052;2023-03-18T04:11:44;100737.88;;;9.34;100.00
47240;BME280;32978;53.586;10.052;2023-03-18T04:16:41;100743.97;;;9.31;100.00
47240;BME280;32978;53.586;10.052;2023-03-18T04:21:38;100747.78;;;9.30;100.00
47240;BME280;32978;53.586;10.052;2023-03-18T04:26:34;100751.03;;;9.32;100.00
47240;BME280;32978;53.586;10.052;2023-03-18T04:31:31;100744.56;;;9.28;100.00
47240;BME280;32978;53.586;10.052;2023-03-18T04:36:28;100756.72;;;9.22;100.00
47240;BME280;32978;53.586;10.052;2023-03-18T04:41:25;100747.41;;;9.23;100.00
47240;BME280;32978;53.586;10.052;2023-03-18T04:46:22;100757.72;;;9.26;100.00
47240;BME280;32978;53.586;10.052;2023-03-18T04:51:19;100747.28;;;9.28;100.00
47240;BME280;32978;53.586;10.052;2023-03-18T04:56:16;100747.78;;;9.30;100.00
47240;BME280;32978;53.586;10.052;2023-03-18T05:01:12;100768.44;;;9.22;100.00
47240;BME280;32978;53.586;10.052;2023-03-18T05:06:19;100781.41;;;9.17;100.00
47240;BME280;32978;53.586;10.052;2023-03-18T05:11:18;100777.63;;;9.26;100.00
47240;BME280;32978;53.586;10.052;2023-03-18T05:16:15;100787.00;;;9.34;100.00
47240;BME280;32978;53.586;10.052;2023-03-18T05:21:11;100780.53;;;9.30;100.00
47240;BME280;32978;53.586;10.052;2023-03-18T05:26:08;100771.38;;;9.26;100.00
47240;BME280;32978;53.586;10.052;2023-03-18T05:31:06;100776.72;;;9.31;100.00
47240;BME280;32978;53.586;10.052;2023-03-18T05:36:03;100784.91;;;9.31;100.00
47240;BME280;32978;53.586;10.052;2023-03-18T05:41:00;100784.56;;;9.33;100.00
47240;BME280;32978;53.586;10.052;2023-03-18T05:45:57;100796.81;;;9.35;100.00
47240;BME280;32978;53.586;10.052;2023-03-18T05:50:54;100805.31;;;9.34;100.00
47240;BME280;32978;53.586;10.052;2023-03-18T05:55:50;100810.84;;;9.42;100.00
47240;BME280;32978;53.586;10.052;2023-03-18T06:00:47;100807.50;;;9.45;100.00
47240;BME280;32978;53.586;10.052;2023-03-18T06:05:43;100816.06;;;9.53;100.00
47240;BME280;32978;53.586;10.052;2023-03-18T06:10:40;100823.13;;;9.54;100.00
47240;BME280;32978;53.586;10.052;2023-03-18T06:15:37;100832.44;;;9.53;100.00
47240;BME280;32978;53.586;10.052;2023-03-18T06:20:34;100831.31;;;9.54;100.00
47240;BME280;32978;53.586;10.052;2023-03-18T06:25:30;100826.34;;;9.56;100.00
47240;BME280;32978;53.586;10.052;2023-03-18T06:30:27;100819.66;;;9.62;100.00
47240;BME280;32978;53.586;10.052;2023-03-18T06:35:24;100830.78;;;9.65;100.00
47240;BME280;32978;53.586;10.052;2023-03-18T06:40:24;100843.09;;;9.63;100.00
47240;BME280;32978;53.586;10.052;2023-03-18T06:45:20;100833.56;;;9.74;100.00
47240;BME280;32978;53.586;10.052;2023-03-18T06:50:18;100843.25;;;9.80;100.00
47240;BME280;32978;53.586;10.052;2023-03-18T06:55:15;100838.16;;;9.87;100.00
47240;BME280;32978;53.586;10.052;2023-03-18T07:00:12;100841.78;;;9.97;100.00
47240;BME280;32978;53.586;10.052;2023-03-18T07:05:10;100860.53;;;10.12;100.00
47240;BME280;32978;53.586;10.052;2023-03-18T07:10:13;100864.94;;;10.22;100.00
47240;BME280;32978;53.586;10.052;2023-03-18T07:15:12;100865.59;;;10.27;100.00
47240;BME280;32978;53.586;10.052;2023-03-18T07:20:09;100871.78;;;10.33;100.00
47240;BME280;32978;53.586;10.052;2023-03-18T07:25:06;100873.59;;;10.38;100.00
47240;BME280;32978;53.586;10.052;2023-03-18T07:30:04;100873.81;;;10.50;100.00
47240;BME280;32978;53.586;10.052;2023-03-18T07:35:01;100878.69;;;10.62;100.00
47240;BME280;32978;53.586;10.052;2023-03-18T07:39:59;100889.81;;;10.65;100.00
47240;BME280;32978;53.586;10.052;2023-03-18T07:44:56;100898.88;;;10.74;100.00
47240;BME280;32978;53.586;10.052;2023-03-18T07:49:53;100901.78;;;10.78;100.00
47240;BME280;32978;53.586;10.052;2023-03-18T07:54:49;100896.59;;;10.77;100.00
47240;BME280;32978;53.586;10.052;2023-03-18T07:59:46;100895.00;;;10.76;100.00
47240;BME280;32978;53.586;10.052;2023-03-18T08:04:43;100906.78;;;10.85;100.00
47240;BME280;32978;53.586;10.052;2023-03-18T08:09:42;100900.84;;;10.83;100.00
47240;BME280;32978;53.586;10.052;2023-03-18T08:14:38;100907.94;;;10.84;100.00
47240;BME280;32978;53.586;10.052;2023-03-18T08:19:35;100914.19;;;10.84;100.00
47240;BME280;32978;53.586;10.052;2023-03-18T08:24:32;100926.28;;;10.92;100.00
47240;BME280;32978;53.586;10.052;2023-03-18T08:29:30;100926.00;;;10.93;100.00
47240;BME280;32978;53.586;10.052;2023-03-18T08:34:27;100927.44;;;10.91;100.00
47240;BME280;32978;53.586;10.052;2023-03-18T08:39:24;100943.16;;;10.85;100.00
47240;BME280;32978;53.586;10.052;2023-03-18T08:44:22;100939.63;;;10.85;100.00
47240;BME280;32978;53.586;10.052;2023-03-18T08:49:18;100955.53;;;10.83;100.00
47240;BME280;32978;53.586;10.052;2023-03-18T08:54:15;100971.94;;;10.83;100.00
47240;BME280;32978;53.586;10.052;2023-03-18T08:59:12;100973.38;;;10.80;100.00
47240;BME280;32978;53.586;10.052;2023-03-18T09:04:08;100981.53;;;10.71;100.00
47240;BME280;32978;53.586;10.052;2023-03-18T09:09:05;100986.75;;;10.82;100.00
47240;BME280;32978;53.586;10.052;2023-03-18T09:14:01;100989.09;;;10.97;100.00
47240;BME280;32978;53.586;10.052;2023-03-18T09:18:58;100999.31;;;10.83;100.00
47240;BME280;32978;53.586;10.052;2023-03-18T09:23:55;100997.06;;;10.85;100.00
47240;BME280;32978;53.586;10.052;2023-03-18T09:28:51;101011.47;;;10.77;100.00
47240;BME280;32978;53.586;10.052;2023-03-18T09:33:48;101017.59;;;10.73;100.00
47240;BME280;32978;53.586;10.052;2023-03-18T09:38:45;101023.56;;;10.76;100.00
47240;BME280;32978;53.586;10.052;2023-03-18T09:54:45;101021.53;;;10.90;100.00
47240;BME280;32978;53.586;10.052;2023-03-18T09:59:57;101020.03;;;11.06;100.00
47240;BME280;32978;53.586;10.052;2023-03-18T10:05:00;101027.53;;;11.23;100.00
47240;BME280;32978;53.586;10.052;2023-03-18T10:10:05;101027.56;;;11.32;100.00
47240;BME280;32978;53.586;10.052;2023-03-18T10:15:24;101023.84;;;11.68;100.00
47240;BME280;32978;53.586;10.052;2023-03-18T10:20:34;101021.41;;;12.41;100.00
47240;BME280;32978;53.586;10.052;2023-03-18T10:25:40;101028.66;;;12.63;100.00
47240;BME280;32978;53.586;10.052;2023-03-18T10:41:16;101030.09;;;12.34;100.00
47240;BME280;32978;53.586;10.052;2023-03-18T10:46:14;101033.66;;;12.43;100.00
47240;BME280;32978;53.586;10.052;2023-03-18T10:51:28;101032.69;;;12.57;100.00
47240;BME280;32978;53.586;10.052;2023-03-18T10:56:26;101034.31;;;12.58;100.00
47240;BME280;32978;53.586;10.052;2023-03-18T11:01:26;101032.47;;;12.97;100.00
47240;BME280;32978;53.586;10.052;2023-03-18T11:06:35;101032.97;;;12.99;100.00
47240;BME280;32978;53.586;10.052;2023-03-18T11:11:41;101037.09;;;13.22;100.00
47240;BME280;32978;53.586;10.052;2023-03-18T11:16:47;101034.94;;;13.45;100.00
47240;BME280;32978;53.586;10.052;2023-03-18T11:21:47;101029.16;;;13.77;100.00
47240;BME280;32978;53.586;10.052;2023-03-18T11:26:52;101041.81;;;14.62;100.00
47240;BME280;32978;53.586;10.052;2023-03-18T11:31:56;101030.97;;;14.65;100.00
47240;BME280;32978;53.586;10.052;2023-03-18T11:37:03;101013.38;;;15.86;100.00
47240;BME280;32978;53.586;10.052;2023-03-18T11:42:00;101013.59;;;15.68;100.00
47240;BME280;32978;53.586;10.052;2023-03-18T11:47:18;101006.81;;;16.03;100.00
47240;BME280;32978;53.586;10.052;2023-03-18T11:52:40;101007.63;;;15.54;100.00
47240;BME280;32978;53.586;10.052;2023-03-18T12:08:59;101006.34;;;16.97;100.00
47240;BME280;32978;53.586;10.052;2023-03-18T12:14:16;100985.91;;;17.81;100.00
47240;BME280;32978;53.586;10.052;2023-03-18T12:30:22;101014.75;;;19.17;100.00
47240;BME280;32978;53.586;10.052;2023-03-18T12:35:39;101006.63;;;20.64;100.00
47240;BME280;32978;53.586;10.052;2023-03-18T12:40:59;101018.78;;;21.79;100.00
47240;BME280;32978;53.586;10.052;2023-03-18T12:46:03;101033.03;;;21.67;100.00
47240;BME280;32978;53.586;10.052;2023-03-18T12:51:10;101017.63;;;21.32;100.00
47240;BME280;32978;53.586;10.052;2023-03-18T12:56:14;101016.28;;;21.59;100.00
47240;BME280;32978;53.586;10.052;2023-03-18T13:16:29;101022.03;;;19.25;100.00
47240;BME280;32978;53.586;10.052;2023-03-18T13:21:29;101020.38;;;18.39;100.00
47240;BME280;32978;53.586;10.052;2023-03-18T13:37:25;101006.88;;;16.75;100.00
47240;BME280;32978;53.586;10.052;2023-03-18T13:42:35;101008.66;;;17.75;100.00
47240;BME280;32978;53.586;10.052;2023-03-18T13:47:35;101004.19;;;19.99;100.00
47240;BME280;32978;53.586;10.052;2023-03-18T13:52:36;101018.25;;;17.45;100.00
47240;BME280;32978;53.586;10.052;2023-03-18T13:57:44;101018.94;;;16.54;100.00
47240;BME280;32978;53.586;10.052;2023-03-18T14:02:43;101010.31;;;16.28;100.00
47240;BME280;32978;53.586;10.052;2023-03-18T14:07:47;101012.22;;;15.87;100.00
47240;BME280;32978;53.586;10.052;2023-03-18T14:12:45;101010.16;;;15.84;100.00
47240;BME280;32978;53.586;10.052;2023-03-18T14:17:52;101009.47;;;15.99;100.00
47240;BME280;32978;53.586;10.052;2023-03-18T14:22:52;101009.25;;;18.00;100.00
47240;BME280;32978;53.586;10.052;2023-03-18T14:27:52;101007.00;;;17.07;100.00
47240;BME280;32978;53.586;10.052;2023-03-18T14:32:55;101013.63;;;16.61;100.00
47240;BME280;32978;53.586;10.052;2023-03-18T14:43:09;101007.50;;;15.87;100.00
47240;BME280;32978;53.586;10.052;2023-03-18T14:53:20;101008.53;;;15.58;100.00
47240;BME280;32978;53.586;10.052;2023-03-18T14:58:21;101003.16;;;15.74;100.00
47240;BME280;32978;53.586;10.052;2023-03-18T15:03:23;101005.56;;;15.63;100.00
47240;BME280;32978;53.586;10.052;2023-03-18T15:08:24;101011.25;;;17.52;100.00
47240;BME280;32978;53.586;10.052;2023-03-18T15:13:29;101011.72;;;16.78;100.00
47240;BME280;32978;53.586;10.052;2023-03-18T15:18:32;101004.59;;;16.20;100.00
47240;BME280;32978;53.586;10.052;2023-03-18T15:23:32;101012.34;;;15.90;100.00
47240;BME280;32978;53.586;10.052;2023-03-18T15:28:30;101015.69;;;15.84;100.00
47240;BME280;32978;53.586;10.052;2023-03-18T15:33:35;101016.13;;;15.86;100.00
47240;BME280;32978;53.586;10.052;2023-03-18T15:38:32;101018.31;;;15.80;100.00
47240;BME280;32978;53.586;10.052;2023-03-18T15:43:32;101029.44;;;15.34;100.00
47240;BME280;32978;53.586;10.052;2023-03-18T15:48:37;101021.09;;;15.10;100.00
47240;BME280;32978;53.586;10.052;2023-03-18T15:53:43;101019.31;;;15.26;100.00
47240;BME280;32978;53.586;10.052;2023-03-18T15:58:43;101020.84;;;16.38;100.00
47240;BME280;32978;53.586;10.052;2023-03-18T16:03:41;101027.56;;;16.12;100.00
47240;BME280;32978;53.586;10.052;2023-03-18T16:08:37;101025.75;;;15.92;100.00
47240;BME280;32978;53.586;10.052;2023-03-18T16:13:34;101029.28;;;17.14;100.00
47240;BME280;32978;53.586;10.052;2023-03-18T16:18:31;101034.81;;;16.57;100.00
47240;BME280;32978;53.586;10.052;2023-03-18T16:23:28;101030.88;;;17.46;100.00
47240;BME280;32978;53.586;10.052;2023-03-18T16:28:26;101028.47;;;17.13;100.00
47240;BME280;32978;53.586;10.052;2023-03-18T16:33:23;101031.66;;;16.43;100.00
47240;BME280;32978;53.586;10.052;2023-03-18T16:38:20;101031.41;;;15.95;100.00
47240;BME280;32978;53.586;10.052;2023-03-18T16:43:18;101039.00;;;15.74;100.00
47240;BME280;32978;53.586;10.052;2023-03-18T16:48:19;101047.78;;;15.43;100.00
47240;BME280;32978;53.586;10.052;2023-03-18T16:53:27;101052.94;;;14.86;100.00
47240;BME280;32978;53.586;10.052;2023-03-18T16:58:28;101048.59;;;14.85;100.00
47240;BME280;32978;53.586;10.052;2023-03-18T17:03:25;101050.63;;;14.76;100.00
47240;BME280;32978;53.586;10.052;2023-03-18T17:08:22;101052.63;;;14.46;100.00
47240;BME280;32978;53.586;10.052;2023-03-18T17:13:30;101051.75;;;14.33;100.00
47240;BME280;32978;53.586;10.052;2023-03-18T17:18:27;101058.31;;;14.20;100.00
47240;BME280;32978;53.586;10.052;2023-03-18T17:23:26;101076.25;;;13.96;100.00
47240;BME280;32978;53.586;10.052;2023-03-18T17:33:29;101070.13;;;13.52;100.00
47240;BME280;32978;53.586;10.052;2023-03-18T17:38:27;101085.88;;;13.34;100.00
47240;BME280;32978;53.586;10.052;2023-03-18T17:43:27;101095.91;;;13.21;100.00
47240;BME280;32978;53.586;10.052;2023-03-18T17:48:25;101100.09;;;13.10;100.00
47240;BME280;32978;53.586;10.052;2023-03-18T17:58:24;101105.63;;;12.93;100.00
47240;BME280;32978;53.586;10.052;2023-03-18T18:08:18;101102.41;;;12.73;100.00
47240;BME280;32978;53.586;10.052;2023-03-18T18:13:20;101108.22;;;12.63;100.00
47240;BME280;32978;53.586;10.052;2023-03-18T18:18:19;101113.38;;;12.56;100.00
47240;BME280;32978;53.586;10.052;2023-03-18T18:23:26;101123.03;;;12.45;100.00
47240;BME280;32978;53.586;10.052;2023-03-18T18:28:29;101118.19;;;12.41;100.00
47240;BME280;32978;53.586;10.052;2023-03-18T18:33:27;101130.78;;;12.42;100.00
47240;BME280;32978;53.586;10.052;2023-03-18T18:38:24;101135.59;;;12.46;100.00
47240;BME280;32978;53.586;10.052;2023-03-18T18:43:24;101135.44;;;12.51;100.00
47240;BME280;32978;53.586;10.052;2023-03-18T18:48:28;101145.59;;;12.41;100.00
47240;BME280;32978;53.586;10.052;2023-03-18T18:53:29;101151.72;;;12.38;100.00
47240;BME280;32978;53.586;10.052;2023-03-18T18:58:30;101151.25;;;12.28;100.00
47240;BME280;32978;53.586;10.052;2023-03-18T19:03:29;101153.50;;;12.26;100.00
47240;BME280;32978;53.586;10.052;2023-03-18T19:08:32;101161.72;;;12.34;100.00
47240;BME280;32978;53.586;10.052;2023-03-18T19:13:31;101160.25;;;12.37;100.00
47240;BME280;32978;53.586;10.052;2023-03-18T19:18:35;101162.69;;;12.38;100.00
47240;BME280;32978;53.586;10.052;2023-03-18T19:23:34;101145.59;;;12.41;100.00
47240;BME280;32978;53.586;10.052;2023-03-18T19:28:34;101146.09;;;12.35;100.00
47240;BME280;32978;53.586;10.052;2023-03-18T19:33:54;101138.94;;;12.25;100.00
47240;BME280;32978;53.586;10.052;2023-03-18T19:38:53;101143.25;;;12.09;100.00
47240;BME280;32978;53.586;10.052;2023-03-18T19:43:50;101142.56;;;11.94;100.00
47240;BME280;32978;53.586;10.052;2023-03-18T19:48:47;101152.16;;;11.83;100.00
47240;BME280;32978;53.586;10.052;2023-03-18T19:53:45;101149.50;;;11.61;100.00
47240;BME280;32978;53.586;10.052;2023-03-18T19:58:42;101151.81;;;11.45;100.00
47240;BME280;32978;53.586;10.052;2023-03-18T20:03:38;101157.34;;;11.31;100.00
47240;BME280;32978;53.586;10.052;2023-03-18T20:08:35;101165.50;;;11.22;100.00
47240;BME280;32978;53.586;10.052;2023-03-18T20:13:32;101165.34;;;11.19;100.00
47240;BME280;32978;53.586;10.052;2023-03-18T20:18:32;101177.69;;;11.16;100.00
47240;BME280;32978;53.586;10.052;2023-03-18T20:23:29;101172.41;;;11.20;100.00
47240;BME280;32978;53.586;10.052;2023-03-18T20:28:26;101180.50;;;11.25;100.00
47240;BME280;32978;53.586;10.052;2023-03-18T20:33:23;101197.28;;;11.32;100.00
47240;BME280;32978;53.586;10.052;2023-03-18T20:38:30;101199.28;;;11.40;100.00
47240;BME280;32978;53.586;10.052;2023-03-18T20:43:28;101198.66;;;11.43;100.00
47240;BME280;32978;53.586;10.052;2023-03-18T20:48:25;101203.41;;;11.51;100.00
47240;BME280;32978;53.586;10.052;2023-03-18T20:53:25;101200.66;;;11.51;100.00
47240;BME280;32978;53.586;10.052;2023-03-18T20:58:26;101206.31;;;11.55;100.00
47240;BME280;32978;53.586;10.052;2023-03-18T21:03:29;101204.50;;;11.50;100.00
47240;BME280;32978;53.586;10.052;2023-03-18T21:08:26;101197.00;;;11.56;100.00
47240;BME280;32978;53.586;10.052;2023-03-18T21:13:37;101200.22;;;11.58;100.00
47240;BME280;32978;53.586;10.052;2023-03-18T21:18:34;101202.00;;;11.63;100.00
47240;BME280;32978;53.586;10.052;2023-03-18T21:23:32;101192.03;;;11.67;100.00
47240;BME280;32978;53.586;10.052;2023-03-18T21:28:30;101180.47;;;11.70;100.00
47240;BME280;32978;53.586;10.052;2023-03-18T21:33:31;101184.97;;;11.66;100.00
47240;BME280;32978;53.586;10.052;2023-03-18T21:38:30;101178.47;;;11.62;100.00
47240;BME280;32978;53.586;10.052;2023-03-18T21:43:38;101178.13;;;11.54;100.00
47240;BME280;32978;53.586;10.052;2023-03-18T21:48:35;101181.00;;;11.49;100.00
47240;BME280;32978;53.586;10.052;2023-03-18T21:53:32;101182.22;;;11.43;100.00
47240;BME280;32978;53.586;10.052;2023-03-18T21:58:30;101180.25;;;11.35;100.00
47240;BME280;32978;53.586;10.052;2023-03-18T22:03:28;101173.94;;;11.34;100.00
47240;BME280;32978;53.586;10.052;2023-03-18T22:08:25;101169.91;;;11.32;100.00
47240;BME280;32978;53.586;10.052;2023-03-18T22:13:24;101178.88;;;11.24;100.00
47240;BME280;32978;53.586;10.052;2023-03-18T22:18:24;101174.91;;;11.07;100.00
47240;BME280;32978;53.586;10.052;2023-03-18T22:23:27;101177.84;;;10.97;100.00
47240;BME280;32978;53.586;10.052;2023-03-18T22:28:28;101175.38;;;10.87;100.00
47240;BME280;32978;53.586;10.052;2023-03-18T22:33:32;101160.31;;;10.76;100.00
47240;BME280;32978;53.586;10.052;2023-03-18T22:38:29;101166.50;;;10.67;100.00
47240;BME280;32978;53.586;10.052;2023-03-18T22:43:30;101176.22;;;10.60;100.00
47240;BME280;32978;53.586;10.052;2023-03-18T22:48:27;101173.38;;;10.65;100.00
47240;BME280;32978;53.586;10.052;2023-03-18T22:53:35;101181.28;;;10.66;100.00
47240;BME280;32978;53.586;10.052;2023-03-18T22:58:32;101181.28;;;10.66;100.00
47240;BME280;32978;53.586;10.052;2023-03-18T23:03:31;101170.97;;;10.63;100.00
47240;BME280;32978;53.586;10.052;2023-03-18T23:08:29;101165.50;;;10.63;100.00
47240;BME280;32978;53.586;10.052;2023-03-18T23:13:31;101166.44;;;10.45;100.00
47240;BME280;32978;53.586;10.052;2023-03-18T23:18:29;101184.19;;;10.34;100.00
47240;BME280;32978;53.586;10.052;2023-03-18T23:23:26;101182.63;;;10.27;100.00
47240;BME280;32978;53.586;10.052;2023-03-18T23:28:24;101184.78;;;10.30;100.00
47240;BME280;32978;53.586;10.052;2023-03-18T23:33:22;101179.88;;;10.27;100.00
47240;BME280;32978;53.586;10.052;2023-03-18T23:38:18;101181.44;;;10.34;100.00
47240;BME280;32978;53.586;10.052;2023-03-18T23:43:15;101177.91;;;10.33;100.00
47240;BME280;32978;53.586;10.052;2023-03-18T23:48:11;101171.69;;;10.27;100.00
47240;BME280;32978;53.586;10.052;2023-03-18T23:53:08;101174.63;;;10.17;100.00
47240;BME280;32978;53.586;10.052;2023-03-18T23:58:04;101179.88;;;10.00;100.00
